Time;durP1;ratioP1;P1;durP2;ratioP2;P2;SDS_P1;SDS_P2;PMS_P1;PMS_P2;Temp;Humidity;BMP_temperature;BMP_pressure;BME280_temperature;BME280_humidity;BME280_pressure;Samples;Min_cycle;Max_cycle;Signal;HPM_P1;HPM_P2
2021/07/04 00:01:30;;;;;;;8.07;7.18;;;22.00;82.90;;;;;;5132907;27;20111;-87
2021/07/04 00:03:56;;;;;;;8.45;7.07;;;21.90;83.00;;;;;;5116775;27;20100;-88
2021/07/04 00:06:21;;;;;;;9.45;7.18;;;21.90;83.10;;;;;;5113482;28;20050;-89
2021/07/04 00:08:47;;;;;;;7.70;6.57;;;21.90;83.10;;;;;;5113492;28;20067;-87
2021/07/04 00:11:13;;;;;;;8.93;6.95;;;21.90;83.20;;;;;;5114154;28;20051;-88
2021/07/04 00:13:39;;;;;;;7.90;6.70;;;21.80;83.10;;;;;;5114102;28;20052;-87
2021/07/04 00:16:06;;;;;;;8.60;6.72;;;21.80;83.30;;;;;;5113899;28;20047;-87
2021/07/04 00:18:33;;;;;;;8.38;7.00;;;21.80;83.50;;;;;;5113979;28;20054;-87
2021/07/04 00:21:03;;;;;;;8.57;6.72;;;21.80;83.60;;;;;;5113238;28;20131;-87
2021/07/04 00:23:29;;;;;;;7.97;7.00;;;21.70;83.60;;;;;;5115702;27;20046;-87
2021/07/04 00:25:57;;;;;;;8.35;7.00;;;21.80;83.70;;;;;;5113660;28;20406;-88
2021/07/04 00:28:23;;;;;;;8.70;6.88;;;21.70;83.70;;;;;;5112950;28;20055;-87
2021/07/04 00:30:50;;;;;;;8.68;6.78;;;21.70;83.80;;;;;;5112972;28;20562;-88
2021/07/04 00:33:16;;;;;;;8.60;6.45;;;21.70;83.80;;;;;;5112912;28;20047;-88
2021/07/04 00:35:41;;;;;;;9.00;6.60;;;21.60;83.70;;;;;;5112189;28;20050;-87
2021/07/04 00:38:08;;;;;;;7.88;6.72;;;21.60;83.80;;;;;;5094592;28;20052;-88
2021/07/04 00:40:36;;;;;;;8.27;6.95;;;21.50;83.80;;;;;;5112117;28;20447;-87
2021/07/04 00:43:05;;;;;;;8.55;6.82;;;21.50;83.70;;;;;;5127810;27;20508;-88
2021/07/04 00:45:31;;;;;;;8.60;7.15;;;21.50;83.90;;;;;;5134351;27;20097;-87
2021/07/04 00:47:57;;;;;;;8.57;7.32;;;21.50;83.80;;;;;;5134261;28;20047;-88
2021/07/04 00:50:26;;;;;;;7.68;6.57;;;21.50;83.90;;;;;;5133574;28;20043;-88
2021/07/04 00:52:55;;;;;;;8.38;6.45;;;21.40;84.70;;;;;;5122220;28;20384;-89
2021/07/04 00:55:21;;;;;;;7.70;6.50;;;21.40;83.80;;;;;;5113581;28;20090;-89
2021/07/04 00:57:47;;;;;;;8.82;6.80;;;21.40;83.90;;;;;;5113142;28;20104;-89
2021/07/04 01:00:18;;;;;;;8.93;6.63;;;21.40;84.00;;;;;;5113640;28;20040;-89
2021/07/04 01:02:44;;;;;;;9.07;6.47;;;21.30;84.10;;;;;;5127931;28;20043;-89
2021/07/04 01:05:11;;;;;;;8.05;6.95;;;21.30;84.00;;;;;;5133022;28;20414;-89
2021/07/04 01:07:37;;;;;;;8.27;6.68;;;21.30;84.10;;;;;;5133743;28;20043;-89
2021/07/04 01:10:05;;;;;;;8.68;7.30;;;21.30;84.10;;;;;;5134020;28;20497;-89
2021/07/04 01:12:31;;;;;;;10.10;7.78;;;21.20;84.10;;;;;;5133480;28;20126;-89
2021/07/04 01:14:57;;;;;;;8.15;7.07;;;21.20;83.80;;;;;;5134168;28;20074;-88
2021/07/04 01:17:23;;;;;;;8.55;7.20;;;21.20;84.20;;;;;;5132484;27;20039;-88
2021/07/04 01:19:49;;;;;;;9.02;7.38;;;21.10;84.40;;;;;;5137995;27;20092;-89
2021/07/04 01:22:18;;;;;;;9.15;6.97;;;21.20;84.70;;;;;;5137177;27;20043;-88
2021/07/04 01:24:44;;;;;;;10.57;7.68;;;21.10;84.70;;;;;;5137175;27;20064;-88
2021/07/04 01:27:10;;;;;;;8.65;7.15;;;21.10;84.80;;;;;;5137548;27;20087;-88
2021/07/04 01:29:36;;;;;;;9.95;7.43;;;21.00;84.70;;;;;;5136658;27;20058;-88
2021/07/04 01:32:02;;;;;;;9.05;7.47;;;21.00;84.60;;;;;;5137250;27;20084;-89
2021/07/04 01:34:27;;;;;;;8.40;7.35;;;21.00;84.90;;;;;;5117562;27;20043;-88
2021/07/04 01:36:53;;;;;;;8.95;7.22;;;21.00;85.00;;;;;;5117396;28;20100;-89
2021/07/04 01:39:19;;;;;;;9.07;7.35;;;20.90;84.80;;;;;;5116313;28;20071;-89
2021/07/04 01:41:44;;;;;;;8.80;7.25;;;20.90;84.80;;;;;;5126242;27;20047;-88
2021/07/04 01:44:10;;;;;;;8.95;7.53;;;20.90;85.00;;;;;;5136674;27;20051;-90
2021/07/04 01:46:36;;;;;;;9.13;7.22;;;20.90;84.90;;;;;;5131970;27;20056;-89
2021/07/04 01:49:01;;;;;;;8.68;7.78;;;20.80;84.90;;;;;;5116974;28;20055;-88
2021/07/04 01:51:27;;;;;;;9.40;8.23;;;20.80;85.10;;;;;;5116784;28;20055;-90
2021/07/04 01:53:53;;;;;;;9.23;8.23;;;20.80;85.20;;;;;;5116822;28;20062;-90
2021/07/04 01:56:19;;;;;;;9.07;7.65;;;20.80;85.20;;;;;;5116504;28;20051;-88
2021/07/04 01:58:45;;;;;;;10.13;8.30;;;20.80;85.10;;;;;;5116490;28;20048;-89
2021/07/04 02:01:12;;;;;;;8.70;7.60;;;20.80;85.20;;;;;;5117496;27;20059;-89
2021/07/04 02:03:37;;;;;;;12.32;8.88;;;20.70;85.20;;;;;;5116758;28;20052;-90
2021/07/04 02:06:04;;;;;;;8.82;7.60;;;20.70;84.90;;;;;;5116694;28;20048;-89
2021/07/04 02:08:30;;;;;;;10.00;8.35;;;20.70;85.00;;;;;;5116402;28;20123;-89
2021/07/04 02:10:56;;;;;;;8.90;7.38;;;20.70;85.20;;;;;;5127860;27;20138;-89
2021/07/04 02:13:21;;;;;;;10.20;8.40;;;20.70;84.60;;;;;;5136311;27;20039;-89
2021/07/04 02:15:47;;;;;;;8.75;7.38;;;20.60;85.10;;;;;;5136008;27;20043;-89
2021/07/04 02:18:17;;;;;;;9.60;8.23;;;20.60;84.60;;;;;;5117902;27;20398;-89
2021/07/04 02:20:45;;;;;;;11.18;9.55;;;20.60;84.70;;;;;;5115368;28;20048;-89
2021/07/04 02:23:17;;;;;;;10.90;9.23;;;20.50;85.00;;;;;;5116384;28;20506;-89
2021/07/04 02:25:45;;;;;;;11.02;8.90;;;20.50;85.40;;;;;;5116209;28;20044;-89
2021/07/04 02:28:14;;;;;;;10.38;7.95;;;20.50;85.10;;;;;;5113833;28;20127;-89
2021/07/04 02:30:41;;;;;;;11.25;9.85;;;20.40;85.50;;;;;;5115678;28;20164;-88
2021/07/04 02:33:09;;;;;;;9.13;7.97;;;20.40;85.60;;;;;;5115897;28;20048;-89
2021/07/04 02:35:37;;;;;;;11.95;10.50;;;20.30;85.50;;;;;;5114886;28;20048;-89
2021/07/04 02:38:04;;;;;;;9.70;8.70;;;20.30;85.80;;;;;;5116235;28;20071;-89
2021/07/04 02:40:30;;;;;;;12.40;10.98;;;20.30;85.70;;;;;;5115907;27;20051;-88
2021/07/04 02:42:56;;;;;;;11.65;8.32;;;20.30;85.80;;;;;;5115179;28;20047;-88
2021/07/04 02:45:22;;;;;;;8.98;7.68;;;20.30;85.60;;;;;;5113736;28;20135;-88
2021/07/04 02:47:48;;;;;;;9.98;8.90;;;20.30;85.60;;;;;;5129985;27;20051;-88
2021/07/04 02:50:14;;;;;;;12.02;8.77;;;20.30;85.90;;;;;;5134801;27;20058;-89
2021/07/04 02:52:40;;;;;;;10.75;8.63;;;20.20;86.30;;;;;;5136385;27;20519;-88
2021/07/04 02:55:08;;;;;;;11.63;9.15;;;20.20;86.00;;;;;;5136199;27;20066;-89
2021/07/04 02:57:34;;;;;;;10.25;9.10;;;20.20;86.10;;;;;;5135620;27;20138;-89
2021/07/04 03:00:00;;;;;;;10.60;8.95;;;20.20;86.00;;;;;;5131739;27;20039;-88
2021/07/04 03:02:26;;;;;;;10.30;8.60;;;20.20;85.90;;;;;;5115492;28;20089;-89
2021/07/04 03:04:52;;;;;;;10.73;9.25;;;20.20;86.30;;;;;;5115310;28;20083;-89
2021/07/04 03:07:19;;;;;;;10.85;9.23;;;20.10;86.30;;;;;;5115887;28;20039;-89
2021/07/04 03:09:44;;;;;;;10.48;9.15;;;20.20;86.50;;;;;;5114690;28;20047;-88
2021/07/04 03:12:10;;;;;;;10.77;9.68;;;20.10;86.30;;;;;;5115446;28;20046;-88
2021/07/04 03:14:36;;;;;;;11.00;9.05;;;20.10;86.30;;;;;;5115052;28;20071;-89
2021/07/04 03:17:03;;;;;;;10.82;8.73;;;20.10;86.20;;;;;;5114586;28;20144;-88
2021/07/04 03:19:30;;;;;;;10.35;9.20;;;20.10;86.00;;;;;;5117524;27;20055;-88
2021/07/04 03:21:56;;;;;;;10.38;8.77;;;20.10;85.90;;;;;;5136099;27;20054;-88
2021/07/04 03:24:22;;;;;;;11.38;9.02;;;20.10;85.50;;;;;;5135044;27;20055;-88
2021/07/04 03:26:48;;;;;;;9.98;8.77;;;20.00;85.50;;;;;;5135526;27;20059;-88
2021/07/04 03:29:14;;;;;;;11.13;9.30;;;20.00;85.90;;;;;;5135482;27;20142;-89
2021/07/04 03:31:39;;;;;;;10.30;9.20;;;20.00;86.10;;;;;;5097534;28;20044;-88
2021/07/04 03:34:05;;;;;;;10.65;8.80;;;20.00;85.90;;;;;;5115198;28;20054;-88
2021/07/04 03:36:34;;;;;;;11.07;9.20;;;20.00;85.90;;;;;;5115202;28;20052;-90
2021/07/04 03:39:05;;;;;;;11.25;8.95;;;20.00;85.90;;;;;;5115030;27;20511;-88
2021/07/04 03:41:31;;;;;;;11.32;10.10;;;19.90;86.00;;;;;;5134698;27;20106;-87
2021/07/04 03:43:59;;;;;;;10.73;9.63;;;19.90;85.70;;;;;;5135299;27;20414;-88
2021/07/04 03:46:28;;;;;;;10.77;9.07;;;20.00;85.90;;;;;;5134372;27;20131;-87
2021/07/04 03:48:54;;;;;;;10.25;9.07;;;19.90;85.60;;;;;;5135500;27;20051;-87
2021/07/04 03:51:20;;;;;;;10.35;9.25;;;19.90;86.10;;;;;;5133657;27;20039;-87
2021/07/04 03:53:46;;;;;;;11.10;9.30;;;19.90;86.20;;;;;;5131609;27;20138;-87
2021/07/04 03:56:12;;;;;;;10.85;9.20;;;19.90;86.20;;;;;;5134266;27;20092;-87
2021/07/04 03:58:37;;;;;;;12.75;9.68;;;19.90;86.50;;;;;;5133054;27;20055;-87
2021/07/04 04:01:04;;;;;;;11.38;9.98;;;19.90;86.00;;;;;;5133913;27;20045;-88
2021/07/04 04:03:29;;;;;;;10.90;9.65;;;19.80;86.10;;;;;;5134983;27;20043;-87
2021/07/04 04:05:56;;;;;;;11.00;9.90;;;19.90;86.00;;;;;;5135003;27;20052;-88
2021/07/04 04:08:23;;;;;;;12.27;10.85;;;19.80;86.10;;;;;;5134186;27;20051;-88
2021/07/04 04:10:49;;;;;;;11.35;9.95;;;19.80;86.40;;;;;;5133213;27;20054;-88
2021/07/04 04:13:14;;;;;;;11.38;9.40;;;19.80;86.40;;;;;;5134009;27;20055;-87
2021/07/04 04:15:40;;;;;;;11.23;9.57;;;19.80;86.10;;;;;;5134604;27;20039;-87
2021/07/04 04:18:06;;;;;;;10.40;9.30;;;19.80;86.30;;;;;;5134437;27;20094;-86
2021/07/04 04:20:32;;;;;;;12.30;10.02;;;19.80;86.30;;;;;;5132564;27;20058;-87
2021/07/04 04:22:58;;;;;;;11.13;9.18;;;19.80;86.20;;;;;;5134643;27;20043;-87
2021/07/04 04:25:23;;;;;;;11.65;9.27;;;19.80;86.20;;;;;;5134250;27;20058;-87
2021/07/04 04:27:49;;;;;;;13.57;10.27;;;19.80;86.40;;;;;;5133741;27;20043;-87
2021/07/04 04:30:15;;;;;;;11.35;10.02;;;19.70;86.00;;;;;;5133336;27;20498;-87
2021/07/04 04:32:41;;;;;;;11.85;9.57;;;19.70;86.20;;;;;;5134164;27;20896;-87
2021/07/04 04:35:09;;;;;;;10.73;9.60;;;19.80;85.80;;;;;;5133560;27;20043;-87
2021/07/04 04:37:35;;;;;;;11.23;10.00;;;19.70;85.60;;;;;;5134057;27;20046;-87
2021/07/04 04:40:01;;;;;;;11.38;10.10;;;19.70;85.90;;;;;;5134271;27;20405;-87
2021/07/04 04:42:26;;;;;;;11.30;10.10;;;19.70;85.60;;;;;;5132556;27;20070;-88
2021/07/04 04:44:52;;;;;;;13.07;10.43;;;19.70;85.60;;;;;;5133363;27;20035;-88
2021/07/04 04:47:18;;;;;;;10.85;9.75;;;19.70;86.10;;;;;;5133838;27;20047;-88
2021/07/04 04:49:44;;;;;;;11.70;10.25;;;19.70;86.30;;;;;;5132789;28;20043;-87
2021/07/04 04:52:09;;;;;;;10.82;9.73;;;19.70;86.40;;;;;;5133996;27;20051;-87
2021/07/04 04:54:35;;;;;;;10.75;9.40;;;19.70;86.50;;;;;;5134081;28;20099;-87
2021/07/04 04:57:07;;;;;;;10.85;9.75;;;19.70;85.80;;;;;;5133572;28;20051;-87
2021/07/04 04:59:42;;;;;;;12.40;10.95;;;19.70;86.40;;;;;;5121272;28;20043;-87
2021/07/04 05:02:08;;;;;;;13.48;12.07;;;19.70;86.50;;;;;;5125239;28;20066;-87
2021/07/04 05:04:33;;;;;;;11.88;10.65;;;19.70;86.70;;;;;;5117923;28;20495;-87
2021/07/04 05:06:59;;;;;;;11.93;10.73;;;19.70;86.90;;;;;;5118819;28;20044;-87
2021/07/04 05:09:25;;;;;;;11.77;10.40;;;19.70;86.90;;;;;;5112607;28;20075;-87
2021/07/04 05:11:52;;;;;;;10.88;9.77;;;19.60;86.70;;;;;;5114185;28;20050;-83
2021/07/04 05:14:19;;;;;;;12.05;10.25;;;19.70;86.80;;;;;;5117238;28;20044;-88
2021/07/04 05:16:45;;;;;;;16.13;12.90;;;19.60;86.90;;;;;;5120816;28;20134;-86
2021/07/04 05:19:12;;;;;;;19.65;16.80;;;19.70;87.40;;;;;;5123323;28;20048;-87
2021/07/04 05:21:38;;;;;;;16.08;13.15;;;19.70;88.90;;;;;;5125473;28;20073;-87
2021/07/04 05:24:06;;;;;;;11.95;10.40;;;19.70;88.30;;;;;;5123910;28;20040;-87
2021/07/04 05:26:32;;;;;;;13.27;11.88;;;19.70;87.70;;;;;;5123903;28;20047;-89
2021/07/04 05:28:58;;;;;;;21.65;16.15;;;19.60;87.30;;;;;;5124067;28;20059;-88
2021/07/04 05:31:25;;;;;;;17.00;14.77;;;19.60;88.70;;;;;;5121966;28;20040;-89
2021/07/04 05:33:51;;;;;;;12.25;10.73;;;19.70;89.20;;;;;;5121637;28;20617;-87
2021/07/04 05:36:16;;;;;;;11.82;10.63;;;19.70;89.10;;;;;;5127984;28;20134;-89
2021/07/04 05:38:43;;;;;;;16.27;14.65;;;19.70;87.30;;;;;;5126345;28;20047;-85
2021/07/04 05:41:10;;;;;;;15.57;13.20;;;19.70;88.60;;;;;;5128644;28;20040;-85
2021/07/04 05:43:38;;;;;;;13.23;11.15;;;19.70;89.30;;;;;;5122309;28;20495;-88
2021/07/04 05:46:03;;;;;;;13.00;11.68;;;19.70;89.10;;;;;;5122990;28;20092;-86
2021/07/04 05:48:30;;;;;;;12.27;10.98;;;19.70;89.10;;;;;;5133554;28;20433;-85
2021/07/04 05:50:56;;;;;;;14.02;11.75;;;19.70;89.40;;;;;;5126697;28;20067;-85
2021/07/04 05:53:22;;;;;;;14.13;12.30;;;19.70;89.50;;;;;;5112053;28;20043;-84
2021/07/04 05:55:48;;;;;;;14.63;12.52;;;19.70;90.00;;;;;;5113226;28;20050;-84
2021/07/04 05:58:14;;;;;;;13.00;11.60;;;19.70;90.00;;;;;;5095073;28;20055;-84
2021/07/04 06:00:40;;;;;;;12.48;11.18;;;19.70;90.00;;;;;;5112107;28;20054;-84
2021/07/04 06:03:06;;;;;;;12.70;11.15;;;19.70;89.80;;;;;;5113014;28;20066;-83
2021/07/04 06:05:32;;;;;;;12.70;11.38;;;19.60;90.10;;;;;;5115465;28;20115;-83
2021/07/04 06:07:58;;;;;;;15.40;13.02;;;19.70;89.40;;;;;;5116697;28;20047;-87
2021/07/04 06:10:23;;;;;;;15.10;12.10;;;19.70;90.30;;;;;;5116353;28;20403;-84
2021/07/04 06:12:49;;;;;;;12.38;10.48;;;19.60;90.30;;;;;;5117898;27;20392;-81
2021/07/04 06:15:15;;;;;;;15.13;13.32;;;19.70;90.20;;;;;;5134510;27;20043;-83
2021/07/04 06:17:41;;;;;;;15.05;12.77;;;19.60;90.50;;;;;;5136572;27;20047;-83
2021/07/04 06:20:09;;;;;;;13.25;11.75;;;19.70;90.70;;;;;;5135724;27;20075;-83
2021/07/04 06:22:36;;;;;;;16.60;12.18;;;19.70;90.70;;;;;;5134804;27;20054;-83
2021/07/04 06:25:07;;;;;;;11.23;10.02;;;19.70;90.90;;;;;;5137159;27;20054;-83
2021/07/04 06:27:33;;;;;;;14.30;11.65;;;19.70;90.20;;;;;;5135810;27;20039;-83
2021/07/04 06:29:58;;;;;;;12.95;11.48;;;19.70;90.50;;;;;;5136652;27;20065;-83
2021/07/04 06:32:24;;;;;;;13.25;10.93;;;19.70;90.60;;;;;;5136055;27;20509;-83
2021/07/04 06:34:50;;;;;;;14.00;11.82;;;19.70;90.40;;;;;;5135877;27;20046;-82
2021/07/04 06:37:16;;;;;;;13.50;10.68;;;19.70;90.60;;;;;;5136531;27;20043;-82
2021/07/04 06:39:41;;;;;;;12.60;10.50;;;19.70;90.40;;;;;;5136196;27;20471;-83
2021/07/04 06:42:09;;;;;;;12.00;10.50;;;19.70;90.50;;;;;;5126738;27;20039;-83
2021/07/04 06:44:35;;;;;;;14.18;11.65;;;19.70;90.40;;;;;;5122461;27;20074;-82
2021/07/04 06:47:01;;;;;;;12.63;11.32;;;19.70;90.60;;;;;;5115691;27;20476;-83
2021/07/04 06:49:26;;;;;;;12.80;11.30;;;19.70;90.80;;;;;;5119052;27;20074;-84
2021/07/04 06:51:52;;;;;;;13.68;12.18;;;19.70;90.60;;;;;;5124769;27;20040;-85
2021/07/04 06:54:18;;;;;;;12.50;10.10;;;19.70;90.80;;;;;;5116561;27;20548;-86
2021/07/04 06:56:43;;;;;;;10.80;9.38;;;19.80;90.40;;;;;;5114619;28;20078;-85
2021/07/04 06:59:09;;;;;;;14.55;12.38;;;19.80;90.20;;;;;;5115406;28;20101;-84
2021/07/04 07:01:35;;;;;;;12.85;10.95;;;19.80;90.70;;;;;;5115076;28;20457;-83
2021/07/04 07:04:01;;;;;;;15.65;12.48;;;19.80;90.70;;;;;;5114752;28;20429;-83
2021/07/04 07:06:26;;;;;;;13.48;11.73;;;19.90;91.00;;;;;;5121610;27;20055;-83
2021/07/04 07:08:52;;;;;;;14.20;11.38;;;19.90;90.90;;;;;;5126971;27;20035;-83
2021/07/04 07:11:18;;;;;;;13.98;11.40;;;19.90;91.10;;;;;;5130002;27;20446;-83
2021/07/04 07:13:44;;;;;;;11.65;10.43;;;20.00;91.00;;;;;;5131563;27;20040;-83
2021/07/04 07:16:10;;;;;;;12.60;11.30;;;20.00;90.90;;;;;;5113740;28;20055;-83
2021/07/04 07:18:36;;;;;;;13.40;11.27;;;20.00;91.00;;;;;;5129528;27;20557;-84
2021/07/04 07:21:03;;;;;;;11.68;9.50;;;20.10;90.90;;;;;;5136157;27;20152;-84
2021/07/04 07:23:29;;;;;;;11.32;10.10;;;20.10;90.50;;;;;;5134751;27;20039;-85
2021/07/04 07:25:56;;;;;;;12.52;11.23;;;20.10;90.80;;;;;;5130118;27;20050;-84
2021/07/04 07:28:22;;;;;;;12.68;9.75;;;20.10;90.50;;;;;;5123283;27;20177;-84
2021/07/04 07:30:48;;;;;;;11.40;9.35;;;20.20;90.80;;;;;;5125109;27;20043;-84
2021/07/04 07:33:14;;;;;;;11.77;9.25;;;20.20;90.60;;;;;;5123073;27;20082;-83
2021/07/04 07:35:40;;;;;;;11.43;9.43;;;20.20;90.50;;;;;;5125254;27;20057;-85
2021/07/04 07:38:05;;;;;;;10.27;8.77;;;20.30;90.80;;;;;;5123178;27;20388;-83
2021/07/04 07:40:35;;;;;;;11.05;9.27;;;20.30;90.70;;;;;;5123690;27;20047;-93
2021/07/04 07:43:01;;;;;;;10.80;9.13;;;20.40;90.90;;;;;;5115670;28;20067;-89
2021/07/04 07:45:27;;;;;;;11.15;9.20;;;20.40;90.80;;;;;;5117546;27;20047;-87
2021/07/04 07:47:52;;;;;;;13.00;10.00;;;20.50;90.80;;;;;;5456689;22;20045;-88
2021/07/04 07:50:22;;;;;;;10.75;9.40;;;20.50;90.70;;;;;;5035558;28;20041;-87
2021/07/04 07:52:48;;;;;;;11.77;9.65;;;20.60;90.60;;;;;;5043112;28;20484;-87
2021/07/04 07:55:14;;;;;;;10.95;9.73;;;20.60;90.50;;;;;;5041395;28;20041;-88
2021/07/04 07:57:40;;;;;;;12.13;10.32;;;20.60;90.30;;;;;;5041393;28;20076;-90
2021/07/04 08:00:10;;;;;;;12.13;10.57;;;20.60;90.40;;;;;;5043466;28;20049;-88
2021/07/04 08:02:37;;;;;;;13.25;10.70;;;20.70;90.40;;;;;;5041782;28;20045;-88
2021/07/04 08:05:04;;;;;;;12.85;10.95;;;20.70;90.30;;;;;;5042109;28;20077;-87
2021/07/04 08:07:31;;;;;;;12.45;10.25;;;20.80;90.30;;;;;;5041361;28;20107;-89
2021/07/04 08:09:57;;;;;;;15.05;11.00;;;20.80;90.30;;;;;;5041116;28;20068;-87
2021/07/04 08:12:22;;;;;;;12.52;10.88;;;20.90;90.40;;;;;;5043089;28;20476;-88
2021/07/04 08:14:48;;;;;;;12.73;10.88;;;20.90;90.20;;;;;;5041074;28;20068;-86
2021/07/04 08:17:13;;;;;;;12.60;10.40;;;20.80;90.10;;;;;;5041770;28;20045;-88
2021/07/04 08:19:39;;;;;;;12.07;9.95;;;20.90;90.00;;;;;;5042538;28;20111;-90
2021/07/04 08:22:05;;;;;;;12.27;10.98;;;20.90;89.90;;;;;;5040975;28;20400;-88
2021/07/04 08:24:31;;;;;;;12.98;9.75;;;20.90;90.10;;;;;;5042212;28;20067;-88
2021/07/04 08:26:57;;;;;;;11.70;10.25;;;21.00;90.00;;;;;;5041325;28;20452;-89
2021/07/04 08:29:23;;;;;;;12.80;10.77;;;20.90;90.00;;;;;;5040892;28;20072;-88
2021/07/04 08:31:49;;;;;;;12.10;10.80;;;21.00;90.00;;;;;;5042111;28;20396;-87
2021/07/04 08:34:15;;;;;;;11.80;10.60;;;21.00;90.10;;;;;;5040483;28;20065;-88
2021/07/04 08:36:40;;;;;;;12.02;10.80;;;21.00;90.20;;;;;;5042369;28;20509;-89
2021/07/04 08:39:07;;;;;;;14.85;12.27;;;21.00;90.00;;;;;;5040848;28;20072;-89
2021/07/04 08:41:34;;;;;;;15.00;12.73;;;21.10;89.80;;;;;;5041496;28;20045;-88
2021/07/04 08:44:08;;;;;;;13.65;12.25;;;21.10;89.60;;;;;;5041712;28;20042;-88
2021/07/04 08:46:45;;;;;;;14.57;13.02;;;21.10;89.30;;;;;;5041639;28;20049;-87
2021/07/04 08:49:12;;;;;;;14.18;11.85;;;21.20;89.20;;;;;;5040895;28;20088;-88
2021/07/04 08:51:39;;;;;;;15.63;10.45;;;21.20;90.10;;;;;;5041410;28;20050;-88
2021/07/04 08:54:05;;;;;;;15.07;11.77;;;21.20;89.40;;;;;;5041552;28;20090;-89
2021/07/04 08:56:31;;;;;;;15.50;11.60;;;21.30;88.80;;;;;;5039414;28;20048;-88
2021/07/04 08:58:56;;;;;;;13.20;11.80;;;21.40;88.20;;;;;;5045861;28;20108;-89
2021/07/04 09:01:25;;;;;;;13.05;11.65;;;21.40;88.10;;;;;;5047808;28;20057;-90
2021/07/04 09:03:53;;;;;;;13.75;12.32;;;21.50;88.00;;;;;;5049047;28;20049;-89
2021/07/04 09:06:48;;;;;;;14.57;11.65;;;21.50;87.90;;;;;;5037973;28;20053;-88
2021/07/04 09:09:28;;;;;;;12.88;11.48;;;21.60;87.60;;;;;;5042587;28;20400;-88
2021/07/04 09:12:00;;;;;;;13.90;12.40;;;21.60;87.20;;;;;;5041667;28;20156;-88
2021/07/04 09:14:28;;;;;;;16.88;15.07;;;21.60;87.00;;;;;;5042851;28;20052;-88
2021/07/04 09:16:54;;;;;;;19.10;15.75;;;21.70;87.20;;;;;;5042465;28;20132;-87
2021/07/04 09:19:20;;;;;;;17.83;15.48;;;21.70;86.80;;;;;;5022035;28;20049;-89
2021/07/04 09:22:02;;;;;;;18.27;14.60;;;21.70;86.60;;;;;;5043680;28;20481;-88
2021/07/04 09:24:30;;;;;;;17.95;14.93;;;21.80;86.20;;;;;;5042623;28;20068;-88
2021/07/04 09:26:56;;;;;;;16.80;14.90;;;21.80;86.50;;;;;;5041202;28;20057;-88
2021/07/04 09:29:43;;;;;;;19.98;16.45;;;21.80;86.80;;;;;;5039739;28;20110;-88
2021/07/04 09:32:17;;;;;;;20.95;17.83;;;21.90;86.50;;;;;;5040650;28;20099;-88
2021/07/04 09:34:57;;;;;;;19.70;16.63;;;22.00;86.80;;;;;;5032148;28;20053;-86
2021/07/04 09:37:31;;;;;;;21.77;18.73;;;22.00;86.70;;;;;;5033111;28;20100;-87
2021/07/04 09:40:17;;;;;;;21.30;18.15;;;22.10;86.50;;;;;;5037143;28;20079;-89
2021/07/04 09:43:08;;;;;;;25.15;21.75;;;22.30;86.00;;;;;;5046331;28;20068;-88
2021/07/04 09:45:45;;;;;;;20.42;18.02;;;22.30;84.80;;;;;;5029663;28;20120;-91
2021/07/04 09:48:11;;;;;;;20.80;17.58;;;22.40;84.80;;;;;;5040231;28;20065;-90
2021/07/04 09:50:40;;;;;;;26.10;20.77;;;22.50;85.20;;;;;;5044242;28;20132;-92
2021/07/04 09:53:06;;;;;;;20.67;18.25;;;22.60;84.10;;;;;;5053081;28;20492;-89
2021/07/04 09:55:32;;;;;;;20.40;17.65;;;22.60;83.60;;;;;;5056493;28;20052;-95
2021/07/04 09:58:04;;;;;;;20.35;16.48;;;22.70;83.50;;;;;;5044907;28;20140;-86
2021/07/04 10:00:35;;;;;;;20.52;17.45;;;22.70;83.80;;;;;;5045842;28;20057;-86
2021/07/04 10:03:19;;;;;;;20.52;18.33;;;22.80;83.90;;;;;;5045227;28;20487;-89
2021/07/04 10:06:00;;;;;;;22.60;19.33;;;22.80;83.70;;;;;;5056346;28;20049;-90
2021/07/04 10:08:25;;;;;;;25.25;21.45;;;23.00;84.00;;;;;;5055483;28;20052;-90
2021/07/04 10:10:54;;;;;;;24.52;21.75;;;23.00;83.50;;;;;;5055363;28;20499;-89
2021/07/04 10:13:19;;;;;;;25.15;22.45;;;23.10;82.70;;;;;;5056568;28;20446;-89
2021/07/04 10:15:45;;;;;;;26.85;23.00;;;23.20;81.70;;;;;;5055436;28;20049;-90
2021/07/04 10:18:12;;;;;;;25.98;22.55;;;23.20;80.70;;;;;;5039931;28;20057;-91
2021/07/04 10:20:39;;;;;;;24.17;21.05;;;23.20;80.60;;;;;;5036193;28;20046;-90
2021/07/04 10:23:07;;;;;;;22.67;20.02;;;23.30;81.00;;;;;;5035774;28;20042;-88
2021/07/04 10:25:34;;;;;;;23.77;21.23;;;23.40;81.30;;;;;;5036105;28;20050;-88
2021/07/04 10:28:01;;;;;;;22.15;19.75;;;23.40;80.40;;;;;;5036719;28;20054;-91
2021/07/04 10:30:27;;;;;;;22.30;18.50;;;23.40;80.40;;;;;;5035954;28;20128;-90
2021/07/04 10:33:14;;;;;;;20.08;17.15;;;23.50;79.90;;;;;;5036389;28;20045;-92
2021/07/04 10:35:58;;;;;;;19.85;17.75;;;23.60;80.80;;;;;;5036323;28;20049;-91
2021/07/04 10:38:24;;;;;;;17.73;15.82;;;23.60;80.30;;;;;;5054512;28;20084;-92
2021/07/04 10:40:50;;;;;;;18.27;15.90;;;23.70;80.00;;;;;;5056557;28;20045;-87
2021/07/04 10:43:47;;;;;;;17.60;15.32;;;23.70;79.90;;;;;;5055816;28;20033;-90
2021/07/04 10:46:12;;;;;;;17.88;15.38;;;23.80;80.40;;;;;;5056546;28;20053;-87
2021/07/04 10:48:52;;;;;;;17.60;15.10;;;23.80;79.40;;;;;;5049440;28;20106;-92
2021/07/04 10:51:17;;;;;;;19.33;14.07;;;23.80;78.70;;;;;;5055153;28;20053;-87
2021/07/04 10:53:54;;;;;;;16.80;14.65;;;23.90;79.00;;;;;;5055947;28;20048;-90
2021/07/04 10:56:39;;;;;;;16.35;14.50;;;23.90;79.20;;;;;;5054180;28;20045;-87
2021/07/04 10:59:08;;;;;;;17.30;14.98;;;23.90;79.30;;;;;;5055012;28;20052;-90
2021/07/04 11:01:54;;;;;;;17.95;15.48;;;24.00;78.80;;;;;;5055790;28;20053;-90
2021/07/04 11:04:38;;;;;;;15.98;14.25;;;24.00;79.80;;;;;;5055285;28;20057;-93
2021/07/04 11:07:05;;;;;;;17.65;14.25;;;24.10;79.90;;;;;;5057122;28;20049;-90
2021/07/04 11:09:53;;;;;;;17.92;15.10;;;24.20;79.60;;;;;;5053486;28;20489;-87
2021/07/04 11:12:29;;;;;;;17.10;14.52;;;24.30;80.20;;;;;;5055986;28;20053;-91
2021/07/04 11:15:15;;;;;;;17.50;14.15;;;24.30;78.00;;;;;;5055719;28;20041;-91
2021/07/04 11:17:59;;;;;;;17.77;15.13;;;24.40;78.00;;;;;;5036407;28;20496;-90
2021/07/04 11:20:40;;;;;;;20.10;15.25;;;24.50;78.80;;;;;;5036621;28;20053;-91
2021/07/04 11:23:08;;;;;;;18.63;15.88;;;24.60;79.30;;;;;;5055900;28;20063;-93
2021/07/04 11:25:38;;;;;;;17.70;15.80;;;24.70;78.30;;;;;;5043933;28;20054;-88
2021/07/04 11:28:18;;;;;;;18.83;14.50;;;24.80;77.20;;;;;;5035140;28;20049;-89
2021/07/04 11:30:49;;;;;;;17.10;14.45;;;24.80;76.20;;;;;;5042717;28;20501;-87
2021/07/04 11:33:36;;;;;;;15.90;13.18;;;24.90;76.30;;;;;;5039553;28;20090;-85
2021/07/04 11:36:10;;;;;;;16.98;14.55;;;25.00;75.80;;;;;;5054151;28;20049;-91
2021/07/04 11:38:45;;;;;;;15.43;13.02;;;25.10;76.30;;;;;;5055004;28;20124;-91
2021/07/04 11:41:17;;;;;;;16.90;14.82;;;25.10;72.90;;;;;;5055153;28;20059;-91
2021/07/04 11:43:43;;;;;;;17.10;13.67;;;25.10;76.40;;;;;;5055214;28;20059;-90
2021/07/04 11:46:11;;;;;;;15.02;12.57;;;25.20;77.00;;;;;;5053419;28;20052;-91
2021/07/04 11:48:56;;;;;;;17.02;13.48;;;25.20;74.60;;;;;;5054744;28;20132;-92
2021/07/04 11:51:22;;;;;;;15.40;12.45;;;25.20;76.00;;;;;;5049944;28;20444;-90
2021/07/04 11:53:50;;;;;;;14.05;12.55;;;25.30;75.20;;;;;;5053095;28;20084;-88
2021/07/04 11:56:17;;;;;;;15.80;13.48;;;25.30;76.30;;;;;;5052902;28;20041;-88
2021/07/04 11:58:42;;;;;;;17.05;13.68;;;25.40;77.30;;;;;;5053529;28;20411;-87
2021/07/04 12:01:23;;;;;;;15.55;13.45;;;25.50;78.20;;;;;;5052503;28;20060;-87
2021/07/04 12:03:50;;;;;;;14.63;11.27;;;25.60;78.20;;;;;;5040942;28;20056;-88
2021/07/04 12:06:17;;;;;;;13.45;10.60;;;25.50;76.00;;;;;;5043335;28;20080;-89
2021/07/04 12:09:00;;;;;;;13.80;11.10;;;25.60;75.20;;;;;;5039498;28;20493;-93
2021/07/04 12:11:51;;;;;;;13.63;11.40;;;25.60;76.00;;;;;;5053635;28;20068;-84
2021/07/04 12:14:21;;;;;;;13.32;10.05;;;25.70;75.90;;;;;;5053368;28;20515;-84
2021/07/04 12:16:47;;;;;;;15.77;12.57;;;25.70;75.20;;;;;;5052886;28;20056;-84
2021/07/04 12:19:33;;;;;;;14.52;12.30;;;25.80;75.30;;;;;;5057745;28;20057;-90
2021/07/04 12:22:02;;;;;;;14.57;12.45;;;25.80;76.70;;;;;;5039684;28;20072;-91
2021/07/04 12:24:32;;;;;;;14.93;12.65;;;25.80;78.00;;;;;;5033956;28;20045;-87
2021/07/04 12:26:58;;;;;;;19.20;12.73;;;25.80;79.70;;;;;;5033289;28;20065;-86
2021/07/04 12:29:24;;;;;;;16.20;14.43;;;25.80;79.90;;;;;;5032783;28;20500;-87
2021/07/04 12:32:02;;;;;;;19.98;14.80;;;25.80;78.30;;;;;;5040556;28;20049;-85
2021/07/04 12:34:30;;;;;;;16.63;14.13;;;25.90;77.80;;;;;;5038358;28;20448;-85
2021/07/04 12:36:56;;;;;;;19.90;13.52;;;25.90;77.60;;;;;;5043278;28;20041;-85
2021/07/04 12:39:29;;;;;;;15.32;12.63;;;25.90;79.30;;;;;;5042928;28;20049;-85